Hlavní strana
METAR-TAF:

METAR-TAF

Letiště :

Beaufort, Jižní Karolína, Spojené státy americké

zeměpisná šířka: 32-29-37N, zeměpisná délka: 080-42-11W, výška: 11 m

Aktuální stav počasí

Zpráva byla vytvořena před 23 minutami, v 17:56 UTC
Západní vítr 11 kt s nárazy do 18 kt
Teplota 11°C
Vlhkost vzduchu 43%
Tlak 1020 hPa
Viditelnost: 16.1 km
Jasno

METAR: KNBC 271756Z 26011G18KT 10SM CLR 11/M01 A3011 RMK AO2 SLP196 T01111011 10122 20050 58003 $

Čas: 13:19 (18:19 UTC)

Předpověď počasí

Předpověď platná od 27 v 15 UTC do 28 v 15 UTC
Západoseverozápadní vítr 14 kt s nárazy do 22 kt
Viditelnost 10 km a více
Jasno
Změna
od 27 v 21 UTC do 27 v 22 UTC
Západoseverozápadní vítr 8 kt
Viditelnost 10 km a více
Jasno

TAF: KNBC 2715/2815 30014G22KT 9999 SKC 511604 QNH3006INS BECMG 2721/2722 30008KT 9999 SKC 500000 QNH3006INS T13/2721Z T02/2812Z

Stav a předpovědi počasí z více než 4 000 letišť (zprávy METAR a TAF).

Červené a žluté tečky na mapě představují dostupné meteorologické stanice.

Když kurzor umístíte na tečku, zobrazí se název stanice.

Pak kliknutím zobrazíte stav a předpověď počasí.

Chcete-li změnit mapu, kliknutím na zelené tlačítko se znaménkem +mapu přiblížíte, kliknutím na zelené tlačítko se znaménkem – mapu oddálíte a kliknutím na zelené šipky přejdete na sousední mapy.


METAR-TAF: